Time;durP1;ratioP1;P1;durP2;ratioP2;P2;SDS_P1;SDS_P2;PMS_P1;PMS_P2;Temp;Humidity;BMP_temperature;BMP_pressure;BME280_temperature;BME280_humidity;BME280_pressure;Samples;Min_cycle;Max_cycle;Signal;HPM_P1;HPM_P2
2023/10/23 04:00:29;;;;;;;14.10;6.85;;;8.20;99.90;;;;;;6014714;23;20214;31
2023/10/23 04:02:57;;;;;;;25.77;6.97;;;8.20;99.90;;;;;;4892024;29;20283;-73
2023/10/23 04:05:24;;;;;;;14.43;7.60;;;8.20;99.90;;;;;;4895400;29;20218;-73
2023/10/23 04:07:51;;;;;;;16.55;7.43;;;8.20;99.90;;;;;;4895866;29;20255;-73
2023/10/23 04:10:17;;;;;;;21.35;6.90;;;8.20;99.90;;;;;;4896836;29;20207;-73
2023/10/23 04:12:44;;;;;;;10.45;6.43;;;8.20;99.90;;;;;;4901757;29;20219;-73
2023/10/23 04:15:11;;;;;;;17.20;7.00;;;8.20;99.90;;;;;;4899699;29;20207;-74
2023/10/23 04:17:38;;;;;;;26.75;5.95;;;8.30;99.90;;;;;;4889770;29;20215;-74
2023/10/23 04:20:07;;;;;;;17.85;7.20;;;8.30;99.90;;;;;;4898211;29;20223;-74
2023/10/23 04:22:34;;;;;;;12.05;5.47;;;8.30;99.90;;;;;;4892473;29;20599;-74
2023/10/23 04:25:01;;;;;;;16.15;7.60;;;8.30;99.90;;;;;;4896344;29;20242;-74
2023/10/23 04:27:28;;;;;;;15.07;6.88;;;8.30;99.90;;;;;;4895455;29;20218;-74
2023/10/23 04:29:55;;;;;;;14.23;6.32;;;8.30;99.90;;;;;;4895880;29;20560;-74
2023/10/23 04:32:21;;;;;;;9.25;6.60;;;8.30;99.90;;;;;;4894637;29;20226;-74
2023/10/23 04:34:48;;;;;;;16.42;7.88;;;8.40;99.90;;;;;;4897224;29;20227;-74
2023/10/23 04:37:16;;;;;;;14.25;6.40;;;8.40;99.90;;;;;;4895465;29;20598;-74
2023/10/23 04:39:43;;;;;;;12.82;6.65;;;8.40;99.90;;;;;;4895393;29;20207;-75
2023/10/23 04:42:09;;;;;;;11.45;6.50;;;8.40;99.90;;;;;;4895201;29;20254;-74
2023/10/23 04:44:36;;;;;;;11.48;7.00;;;8.40;99.90;;;;;;4893791;29;20218;-74
2023/10/23 04:47:03;;;;;;;26.42;8.00;;;8.40;99.90;;;;;;4895479;29;20218;-74
2023/10/23 04:49:30;;;;;;;17.73;6.95;;;8.40;99.90;;;;;;4896029;29;20327;-74
2023/10/23 04:51:57;;;;;;;12.07;7.85;;;8.40;99.90;;;;;;4893021;29;20239;-74
2023/10/23 04:54:25;;;;;;;20.95;7.57;;;8.40;99.90;;;;;;4893735;29;20231;-74
2023/10/23 04:56:51;;;;;;;23.00;6.47;;;8.40;99.90;;;;;;4892675;29;20211;-74
2023/10/23 04:59:18;;;;;;;14.18;7.50;;;8.50;99.90;;;;;;4895379;29;20670;-74
2023/10/23 05:01:45;;;;;;;12.57;6.72;;;8.40;99.90;;;;;;4894925;29;20243;-75
2023/10/23 05:04:11;;;;;;;22.65;8.25;;;8.40;99.90;;;;;;4895057;29;20577;-74
2023/10/23 05:06:38;;;;;;;15.45;6.63;;;8.40;99.90;;;;;;4892151;29;20235;-74
2023/10/23 05:09:06;;;;;;;30.60;9.07;;;8.40;99.90;;;;;;4892339;29;20218;-74
2023/10/23 05:11:34;;;;;;;12.25;7.53;;;8.40;99.90;;;;;;4889501;29;20726;-74
2023/10/23 05:14:01;;;;;;;12.63;6.32;;;8.50;99.90;;;;;;4892852;29;20223;-74
2023/10/23 05:16:28;;;;;;;15.32;7.70;;;8.40;99.90;;;;;;4889954;29;20212;-74
2023/10/23 05:18:54;;;;;;;17.30;6.93;;;8.50;99.90;;;;;;4894253;29;20227;-74
2023/10/23 05:21:21;;;;;;;14.80;7.03;;;8.50;99.90;;;;;;4893922;29;20233;-74
2023/10/23 05:23:48;;;;;;;20.60;8.10;;;8.50;99.90;;;;;;4893509;29;20237;-74
2023/10/23 05:26:15;;;;;;;17.58;8.15;;;8.40;99.90;;;;;;4893418;29;20222;-74
2023/10/23 05:28:43;;;;;;;17.52;7.40;;;8.50;99.90;;;;;;4894239;29;20299;-74
2023/10/23 05:31:10;;;;;;;21.50;7.43;;;8.50;99.90;;;;;;4894211;29;20258;-74
2023/10/23 05:33:37;;;;;;;14.27;7.82;;;8.50;99.90;;;;;;4897691;29;20286;-74
2023/10/23 05:36:04;;;;;;;22.85;7.40;;;8.50;99.90;;;;;;4900012;29;20222;-74
2023/10/23 05:38:31;;;;;;;21.27;7.75;;;8.50;99.90;;;;;;4895170;29;20215;-74
2023/10/23 05:40:58;;;;;;;19.58;9.10;;;8.50;99.90;;;;;;4896502;29;20300;-74
2023/10/23 05:43:26;;;;;;;16.27;6.97;;;8.50;99.90;;;;;;4896276;29;20213;-74
2023/10/23 05:45:54;;;;;;;14.30;6.38;;;8.50;99.90;;;;;;4896090;29;20614;-74
2023/10/23 05:48:21;;;;;;;17.92;8.50;;;8.50;99.90;;;;;;4897745;29;20211;-74
2023/10/23 05:50:58;;;;;;;18.55;7.95;;;8.40;99.90;;;;;;4896623;29;20235;-74
2023/10/23 05:53:25;;;;;;;17.05;6.53;;;8.40;99.90;;;;;;4895148;29;20230;-74
2023/10/23 05:55:51;;;;;;;14.38;6.97;;;8.50;99.90;;;;;;4895559;29;20208;-74
2023/10/23 05:58:18;;;;;;;13.43;7.40;;;8.50;99.90;;;;;;4893337;29;20227;-72
2023/10/23 06:00:45;;;;;;;13.45;8.18;;;8.50;99.90;;;;;;4894523;29;20231;-71
2023/10/23 06:03:13;;;;;;;14.13;8.18;;;8.50;99.90;;;;;;4898018;29;20217;-70
2023/10/23 06:05:41;;;;;;;11.80;7.45;;;8.50;99.90;;;;;;4894480;29;20223;-70
2023/10/23 06:08:07;;;;;;;22.15;9.32;;;8.50;99.90;;;;;;4894925;29;20207;-70
2023/10/23 06:10:40;;;;;;;11.38;7.35;;;8.50;99.90;;;;;;4894606;29;20717;-70
2023/10/23 06:13:07;;;;;;;16.70;7.60;;;8.50;99.90;;;;;;4893843;29;20602;-70
2023/10/23 06:15:34;;;;;;;12.80;8.35;;;8.50;99.90;;;;;;4897849;29;20464;-70
2023/10/23 06:18:01;;;;;;;14.20;7.30;;;8.50;99.90;;;;;;4897217;29;20230;-70
2023/10/23 06:20:29;;;;;;;11.20;6.70;;;8.40;99.90;;;;;;4895510;29;20207;-70
2023/10/23 06:22:55;;;;;;;14.57;7.32;;;8.50;99.90;;;;;;4897122;29;20215;-70
2023/10/23 06:25:22;;;;;;;14.23;7.00;;;8.50;99.90;;;;;;4896980;29;20207;-70
2023/10/23 06:27:49;;;;;;;13.02;6.60;;;8.50;99.90;;;;;;4896115;29;20234;-70
2023/10/23 06:30:16;;;;;;;13.30;6.00;;;8.50;99.90;;;;;;4896134;29;20210;-70
2023/10/23 06:32:42;;;;;;;11.20;7.68;;;8.50;99.90;;;;;;4897254;29;20223;-71
2023/10/23 06:35:09;;;;;;;19.25;11.43;;;8.40;99.90;;;;;;4897837;29;20331;-71
2023/10/23 06:37:38;;;;;;;171.30;50.88;;;8.50;99.90;;;;;;4894798;29;20211;-70
2023/10/23 06:40:06;;;;;;;159.18;66.22;;;8.50;99.90;;;;;;4896301;29;20211;-70
2023/10/23 06:42:33;;;;;;;301.60;101.13;;;8.50;99.90;;;;;;4895559;29;20666;-70
2023/10/23 06:45:00;;;;;;;69.22;36.15;;;8.50;99.90;;;;;;4898577;29;20215;-70
2023/10/23 06:47:26;;;;;;;60.45;30.70;;;8.50;99.90;;;;;;4896161;29;20218;-70
2023/10/23 06:49:53;;;;;;;47.38;28.00;;;8.40;99.90;;;;;;4896975;29;20663;-70
2023/10/23 06:52:20;;;;;;;31.30;16.73;;;8.40;99.90;;;;;;4895979;29;20234;-70
2023/10/23 06:54:48;;;;;;;69.93;30.08;;;8.40;99.90;;;;;;4897051;29;20242;-70
2023/10/23 06:57:15;;;;;;;67.30;31.35;;;8.40;99.90;;;;;;4895974;29;20219;-70
2023/10/23 06:59:41;;;;;;;37.47;17.95;;;8.40;99.90;;;;;;4893461;29;20207;-70
2023/10/23 07:02:09;;;;;;;53.67;25.52;;;8.40;99.90;;;;;;4895338;29;20238;-70
2023/10/23 07:04:35;;;;;;;36.35;17.35;;;8.50;99.90;;;;;;4896465;29;20595;-71
2023/10/23 07:07:02;;;;;;;41.35;21.42;;;8.50;99.90;;;;;;4896546;29;20219;-71
2023/10/23 07:09:31;;;;;;;49.60;23.02;;;8.60;99.90;;;;;;4897083;29;20207;-72
2023/10/23 07:11:59;;;;;;;29.65;17.40;;;8.60;99.90;;;;;;4895979;29;20235;-71
2023/10/23 07:14:26;;;;;;;55.13;27.02;;;8.60;99.90;;;;;;4897565;29;20729;-72
2023/10/23 07:16:53;;;;;;;26.65;15.00;;;8.60;99.90;;;;;;4897651;29;20306;-71
2023/10/23 07:19:20;;;;;;;33.15;15.80;;;8.60;99.90;;;;;;4894745;29;20219;-71
2023/10/23 07:21:46;;;;;;;37.40;18.50;;;8.70;99.90;;;;;;4895516;29;20227;-70
2023/10/23 07:24:13;;;;;;;32.67;16.98;;;8.70;99.90;;;;;;4896597;29;20207;-71
2023/10/23 07:26:40;;;;;;;22.42;11.73;;;8.70;99.90;;;;;;4895917;29;20302;-71
2023/10/23 07:29:08;;;;;;;12.27;9.85;;;8.70;99.90;;;;;;4895552;29;20620;-71
2023/10/23 07:31:36;;;;;;;10.13;8.68;;;8.70;99.90;;;;;;4892878;29;20234;-71
2023/10/23 07:34:04;;;;;;;12.35;9.07;;;8.80;99.90;;;;;;4894935;29;20235;-71
2023/10/23 07:36:31;;;;;;;9.25;7.55;;;8.80;99.90;;;;;;4894037;29;20219;-71
2023/10/23 07:38:57;;;;;;;11.57;8.70;;;8.80;99.90;;;;;;4894044;29;20207;-71
2023/10/23 07:41:24;;;;;;;16.83;12.50;;;8.80;99.90;;;;;;4894867;29;20227;-71
2023/10/23 07:43:51;;;;;;;16.48;10.50;;;8.70;99.90;;;;;;4895542;29;20552;-71
2023/10/23 07:46:19;;;;;;;9.45;6.25;;;8.70;99.90;;;;;;4894692;29;20211;-71
2023/10/23 07:48:46;;;;;;;11.93;7.40;;;8.70;99.90;;;;;;4895460;29;20278;-71
2023/10/23 07:51:15;;;;;;;9.90;6.25;;;8.70;99.90;;;;;;4895780;29;20227;-71
2023/10/23 07:53:41;;;;;;;18.08;8.48;;;8.70;99.90;;;;;;4890636;29;20207;-72
2023/10/23 07:56:08;;;;;;;12.45;8.00;;;8.70;99.90;;;;;;4895303;29;20225;-72
2023/10/23 07:58:35;;;;;;;10.38;5.72;;;8.70;99.90;;;;;;4895662;29;20207;-71
2023/10/23 08:01:05;;;;;;;10.00;6.30;;;8.80;99.90;;;;;;4895365;29;20265;-71
2023/10/23 08:03:34;;;;;;;11.75;5.25;;;8.80;99.90;;;;;;4893750;29;20666;-71
2023/10/23 08:06:03;;;;;;;9.02;5.15;;;8.80;99.90;;;;;;4892480;29;20294;-71
2023/10/23 08:08:30;;;;;;;13.25;6.43;;;8.90;99.90;;;;;;4893100;29;20218;-71
2023/10/23 08:10:56;;;;;;;9.90;6.07;;;8.90;99.90;;;;;;4893984;29;20227;-71
2023/10/23 08:13:23;;;;;;;8.93;6.47;;;9.00;99.90;;;;;;4895093;29;20211;-72
2023/10/23 08:15:50;;;;;;;13.07;6.38;;;9.10;99.90;;;;;;4895416;29;20231;-72
2023/10/23 08:18:17;;;;;;;9.32;5.78;;;9.10;99.90;;;;;;4892508;29;20212;-72
2023/10/23 08:20:45;;;;;;;10.85;6.47;;;9.20;99.90;;;;;;4896133;29;20230;-72
2023/10/23 08:23:11;;;;;;;11.38;6.55;;;9.30;99.90;;;;;;4895047;29;20203;-71
2023/10/23 08:25:38;;;;;;;8.35;7.22;;;9.30;99.90;;;;;;4893690;29;20219;-71
2023/10/23 08:28:05;;;;;;;8.38;6.05;;;9.80;99.90;;;;;;4894449;29;20226;-71
2023/10/23 08:30:33;;;;;;;9.95;6.35;;;9.60;99.90;;;;;;4895362;29;20235;-71
2023/10/23 08:33:00;;;;;;;12.70;7.40;;;9.70;99.90;;;;;;4896098;29;20211;-71
2023/10/23 08:35:28;;;;;;;12.60;8.48;;;9.80;99.90;;;;;;4895548;29;20235;-71
2023/10/23 08:37:56;;;;;;;17.15;10.27;;;9.80;99.90;;;;;;4895027;29;20215;-71
2023/10/23 08:40:23;;;;;;;22.05;14.18;;;9.80;99.90;;;;;;4895735;29;20207;-71
2023/10/23 08:42:50;;;;;;;8.70;7.03;;;9.80;99.90;;;;;;4896281;29;20211;-71
2023/10/23 08:45:17;;;;;;;8.65;6.97;;;9.90;99.90;;;;;;4891052;29;20667;-71
2023/10/23 08:47:44;;;;;;;7.70;6.90;;;10.00;99.90;;;;;;4891421;29;20223;-71
2023/10/23 08:50:12;;;;;;;9.30;7.18;;;10.00;99.90;;;;;;4890721;29;20216;-70
2023/10/23 08:52:44;;;;;;;10.80;6.65;;;10.00;99.90;;;;;;4894252;29;20222;-71
2023/10/23 08:55:13;;;;;;;13.13;8.60;;;10.00;99.90;;;;;;4895254;29;20228;-71
2023/10/23 08:57:42;;;;;;;17.30;11.38;;;10.10;99.90;;;;;;4891144;29;20207;-71
2023/10/23 09:00:10;;;;;;;13.98;7.40;;;10.30;99.90;;;;;;4896036;29;20224;-71
2023/10/23 09:02:37;;;;;;;11.80;7.10;;;10.40;99.90;;;;;;4895214;29;20228;-70
2023/10/23 09:05:04;;;;;;;17.92;12.25;;;10.30;99.90;;;;;;4896043;29;20461;-71
2023/10/23 09:07:31;;;;;;;17.17;12.10;;;10.30;99.90;;;;;;4895327;29;20211;-70
2023/10/23 09:10:02;;;;;;;22.53;15.47;;;10.20;99.90;;;;;;4894777;29;20211;-71
2023/10/23 09:12:32;;;;;;;42.40;20.73;;;10.30;99.90;;;;;;4893324;29;20528;-70
2023/10/23 09:14:59;;;;;;;38.47;21.60;;;10.50;99.90;;;;;;4893698;29;20248;-70
2023/10/23 09:17:27;;;;;;;25.10;16.60;;;10.70;99.90;;;;;;4898696;29;20215;-69
2023/10/23 09:19:54;;;;;;;30.90;20.97;;;10.90;99.90;;;;;;4898928;29;20476;-70
2023/10/23 09:22:20;;;;;;;29.00;16.63;;;11.00;99.90;;;;;;4898062;29;20491;-70
2023/10/23 09:24:48;;;;;;;18.23;12.10;;;11.10;99.90;;;;;;4899675;29;20476;-70
2023/10/23 09:27:15;;;;;;;12.90;9.00;;;11.20;99.90;;;;;;4898093;29;20592;-70
2023/10/23 09:29:43;;;;;;;9.03;6.87;;;11.20;99.90;;;;;;4898836;29;20553;-70
2023/10/23 09:32:10;;;;;;;14.13;8.57;;;11.30;99.90;;;;;;4899423;29;20486;-70
2023/10/23 09:34:42;;;;;;;17.90;10.20;;;11.40;99.90;;;;;;4898834;29;21017;-75
2023/10/23 09:37:09;;;;;;;25.77;15.43;;;11.50;99.90;;;;;;4897214;29;20504;-74
2023/10/23 09:39:37;;;;;;;28.17;18.07;;;11.50;99.90;;;;;;4898661;29;20469;-74
2023/10/23 09:42:08;;;;;;;18.30;11.73;;;11.40;99.90;;;;;;4898588;29;20485;-75
2023/10/23 09:44:36;;;;;;;20.10;12.80;;;11.40;99.90;;;;;;4896762;29;20478;-74
2023/10/23 09:47:08;;;;;;;9.90;7.27;;;11.40;99.90;;;;;;4900354;29;20963;-75
2023/10/23 09:49:36;;;;;;;7.50;6.57;;;11.40;99.90;;;;;;4899201;29;20481;-74
2023/10/23 09:52:09;;;;;;;20.20;13.97;;;11.30;99.90;;;;;;4897681;29;20485;-74
2023/10/23 09:54:38;;;;;;;9.00;7.83;;;11.30;99.90;;;;;;4898185;29;20501;-75
2023/10/23 09:57:08;;;;;;;14.10;11.43;;;11.20;99.90;;;;;;4898138;29;20576;-75
2023/10/23 09:59:38;;;;;;;52.07;30.40;;;11.30;99.90;;;;;;4896758;29;20495;-74
2023/10/23 10:02:08;;;;;;;28.13;17.63;;;11.30;99.90;;;;;;4898192;29;20492;-74
2023/10/23 10:04:43;;;;;;;18.33;14.67;;;11.20;99.90;;;;;;4900426;29;20475;-75
2023/10/23 10:07:14;;;;;;;10.10;9.00;;;11.20;99.90;;;;;;4897397;29;20472;-74
2023/10/23 10:09:42;;;;;;;50.60;33.53;;;11.30;99.90;;;;;;4893433;29;20467;-75
2023/10/23 10:12:09;;;;;;;19.37;14.80;;;11.40;99.90;;;;;;4898372;29;20489;-75
2023/10/23 10:14:36;;;;;;;17.37;10.43;;;11.50;99.90;;;;;;4899214;29;20986;-76
2023/10/23 10:17:04;;;;;;;12.80;10.00;;;11.60;99.90;;;;;;4897554;29;20479;-74
2023/10/23 10:19:34;;;;;;;16.50;10.83;;;11.60;99.90;;;;;;4896432;29;20477;-74
2023/10/23 10:22:07;;;;;;;16.60;12.57;;;11.60;99.90;;;;;;4900342;29;20486;-70
2023/10/23 10:24:35;;;;;;;30.63;18.00;;;11.70;99.90;;;;;;4896719;29;20482;-74
2023/10/23 10:27:04;;;;;;;17.17;10.30;;;11.80;99.90;;;;;;4896159;29;20966;-74
2023/10/23 10:29:31;;;;;;;11.20;9.38;;;11.80;99.90;;;;;;4895793;29;20475;-74
2023/10/23 10:32:05;;;;;;;9.90;7.73;;;11.80;99.90;;;;;;4897974;29;20234;-74
2023/10/23 10:34:34;;;;;;;13.83;8.23;;;11.90;99.90;;;;;;4897928;29;20501;-74
2023/10/23 10:37:04;;;;;;;20.43;14.87;;;11.90;99.90;;;;;;4895213;29;20474;-75
2023/10/23 10:40:04;;;;;;;9.33;6.20;;;11.90;99.90;;;;;;4893994;29;20477;-73
2023/10/23 10:42:35;;;;;;;10.17;6.23;;;12.00;99.90;;;;;;4897770;29;20902;-74
2023/10/23 10:45:17;;;;;;;4.57;4.17;;;12.00;99.90;;;;;;4897762;29;20462;-74
2023/10/23 10:47:49;;;;;;;4.30;3.73;;;12.10;99.90;;;;;;4895942;29;20469;-74
2023/10/23 11:03:51;;;;;;;5.23;4.73;;;12.10;99.90;;;;;;5085890;27;21204;-69
2023/10/23 11:06:18;;;;;;;5.47;4.10;;;12.40;99.90;;;;;;5074477;28;20493;-70
2023/10/23 11:08:47;;;;;;;5.57;4.73;;;12.40;99.90;;;;;;5074474;28;20462;-69
2023/10/23 11:11:13;;;;;;;4.90;4.50;;;12.40;99.90;;;;;;5075164;28;20486;-70
2023/10/23 11:13:46;;;;;;;9.20;6.10;;;12.50;99.90;;;;;;5071415;28;20457;-70
2023/10/23 11:16:13;;;;;;;5.33;4.50;;;12.50;99.90;;;;;;5075858;28;21080;-70
2023/10/23 11:18:42;;;;;;;4.03;3.83;;;12.50;99.90;;;;;;5056176;28;20458;-70
2023/10/23 11:21:09;;;;;;;6.40;5.80;;;12.50;99.90;;;;;;5069826;28;20465;-70
2023/10/23 11:23:36;;;;;;;6.50;4.27;;;12.60;99.90;;;;;;5075516;28;20458;-70
2023/10/23 11:26:03;;;;;;;4.30;4.10;;;12.60;99.90;;;;;;5077682;28;20930;-70
2023/10/23 11:28:30;;;;;;;4.03;3.73;;;12.60;99.90;;;;;;5075420;28;21031;-70
2023/10/23 11:30:59;;;;;;;7.30;6.30;;;12.60;99.90;;;;;;5072684;28;20470;-72
2023/10/23 11:33:29;;;;;;;12.87;9.37;;;12.70;99.90;;;;;;5077461;28;20542;-71
2023/10/23 11:36:00;;;;;;;12.20;7.27;;;12.70;99.90;;;;;;5065026;28;21114;-71
2023/10/23 11:38:27;;;;;;;13.83;11.60;;;12.70;99.90;;;;;;5069541;28;21023;-70
2023/10/23 11:40:54;;;;;;;5.17;4.73;;;12.70;99.90;;;;;;5057259;28;20459;-70
2023/10/23 11:43:21;;;;;;;4.97;4.57;;;12.80;99.90;;;;;;5056172;28;20466;-70
2023/10/23 11:45:48;;;;;;;4.23;3.93;;;12.80;99.90;;;;;;5069449;28;20579;-71
2023/10/23 11:48:15;;;;;;;4.43;4.10;;;12.90;99.90;;;;;;5071965;28;20525;-70
2023/10/23 11:50:45;;;;;;;4.33;3.93;;;12.90;99.90;;;;;;5078444;28;20466;-71
2023/10/23 11:53:16;;;;;;;6.30;5.70;;;12.90;99.90;;;;;;5071896;28;20492;-70
2023/10/23 11:55:46;;;;;;;5.10;4.70;;;12.90;99.90;;;;;;5063163;28;20575;-71
2023/10/23 11:58:13;;;;;;;3.70;3.40;;;12.90;99.90;;;;;;5069678;28;20474;-70
2023/10/23 12:00:41;;;;;;;8.00;7.30;;;13.00;99.90;;;;;;5066318;28;20540;-71
2023/10/23 12:03:08;;;;;;;4.67;4.20;;;13.00;99.90;;;;;;5066504;28;20954;-71
2023/10/23 12:05:40;;;;;;;5.23;4.03;;;13.00;99.90;;;;;;5050151;28;20510;-70
2023/10/23 12:08:08;;;;;;;3.80;3.60;;;13.00;99.90;;;;;;5050225;28;20837;-70
2023/10/23 12:10:38;;;;;;;5.70;4.90;;;13.00;99.90;;;;;;5046999;28;20519;-70
2023/10/23 12:13:07;;;;;;;6.10;5.70;;;13.00;99.90;;;;;;5045246;28;20559;-71
2023/10/23 12:15:37;;;;;;;3.73;3.50;;;13.00;99.90;;;;;;5061538;28;20479;-70
2023/10/23 12:18:04;;;;;;;2.77;2.57;;;13.00;99.90;;;;;;5043668;28;20471;-70
2023/10/23 12:20:31;;;;;;;2.60;2.50;;;13.00;99.90;;;;;;5063794;28;20459;-70
2023/10/23 12:22:58;;;;;;;2.60;2.50;;;13.00;99.90;;;;;;5067459;28;20455;-69
2023/10/23 12:25:25;;;;;;;4.70;4.40;;;13.00;99.90;;;;;;5071447;28;20566;-70
2023/10/23 12:27:54;;;;;;;4.33;4.13;;;13.00;99.90;;;;;;5061038;28;20472;-70
2023/10/23 12:30:22;;;;;;;1.83;1.83;;;13.00;99.90;;;;;;5063392;28;20478;-71
2023/10/23 12:32:49;;;;;;;6.87;6.37;;;13.00;99.90;;;;;;5044613;28;20484;-70
2023/10/23 12:35:16;;;;;;;3.10;2.90;;;13.10;99.90;;;;;;5044670;28;20556;-70
2023/10/23 12:37:46;;;;;;;2.67;2.47;;;13.10;99.90;;;;;;5065319;28;20543;-70
2023/10/23 12:40:12;;;;;;;2.27;2.17;;;13.10;99.90;;;;;;5049816;28;20503;-70
2023/10/23 12:42:40;;;;;;;4.97;3.80;;;13.10;99.90;;;;;;5034455;28;20548;-76
2023/10/23 12:45:14;;;;;;;2.20;2.10;;;13.20;99.90;;;;;;5039755;28;20483;-78
2023/10/23 12:47:44;;;;;;;2.63;2.63;;;13.10;99.90;;;;;;5050773;28;20550;-71
2023/10/23 12:50:13;;;;;;;3.00;2.80;;;13.20;99.90;;;;;;5069110;28;20881;-70
2023/10/23 12:52:40;;;;;;;2.63;2.50;;;13.30;99.90;;;;;;5047882;28;20528;-73
2023/10/23 12:55:08;;;;;;;3.03;2.67;;;13.30;99.90;;;;;;5051004;28;20483;-70
2023/10/23 12:57:37;;;;;;;1.90;1.80;;;13.40;99.90;;;;;;5061290;28;20467;-71
2023/10/23 13:00:05;;;;;;;2.40;2.30;;;13.40;99.90;;;;;;5044128;28;20460;-71
2023/10/23 13:02:37;;;;;;;2.00;1.90;;;13.40;99.90;;;;;;5052038;28;20528;-72
2023/10/23 13:05:05;;;;;;;2.47;2.37;;;13.40;99.90;;;;;;5066823;28;20479;-72
2023/10/23 13:07:35;;;;;;;3.07;2.00;;;13.40;99.90;;;;;;5050366;28;20465;-72
2023/10/23 13:10:03;;;;;;;2.87;2.67;;;13.40;99.90;;;;;;5046718;28;20938;-72
2023/10/23 13:12:30;;;;;;;2.67;2.57;;;13.40;99.90;;;;;;5062215;28;20484;-72
2023/10/23 13:14:57;;;;;;;2.73;2.53;;;13.40;99.90;;;;;;5051072;28;20495;-72
2023/10/23 13:17:24;;;;;;;2.10;2.00;;;13.40;99.90;;;;;;5050274;28;20533;-72
2023/10/23 13:19:52;;;;;;;6.17;4.23;;;13.50;99.90;;;;;;5063914;28;20498;-71
2023/10/23 13:22:21;;;;;;;4.30;4.00;;;13.50;99.90;;;;;;5047675;28;20872;-71
2023/10/23 13:24:48;;;;;;;5.97;5.40;;;13.50;99.90;;;;;;5063840;28;20485;-72
2023/10/23 13:27:15;;;;;;;7.77;7.20;;;13.50;99.90;;;;;;5054784;28;20459;-72
2023/10/23 13:29:42;;;;;;;8.43;7.13;;;13.50;99.90;;;;;;5040629;28;20486;-71
2023/10/23 13:32:09;;;;;;;5.27;3.70;;;13.50;99.90;;;;;;5040092;28;20528;-71
2023/10/23 13:34:39;;;;;;;4.53;2.90;;;13.50;99.90;;;;;;5043277;28;20455;-72
2023/10/23 13:37:07;;;;;;;10.13;8.43;;;13.50;99.90;;;;;;5065406;28;20546;-72
2023/10/23 13:39:37;;;;;;;11.40;10.07;;;13.50;99.90;;;;;;5058553;28;21032;-72
2023/10/23 13:42:04;;;;;;;5.53;5.00;;;13.50;99.90;;;;;;5040621;28;20536;-72
2023/10/23 13:44:32;;;;;;;1.63;1.53;;;13.50;99.90;;;;;;5043372;28;20476;-71
2023/10/23 13:46:59;;;;;;;2.43;2.33;;;13.50;99.90;;;;;;5049663;28;20805;-72
2023/10/23 13:49:26;;;;;;;3.30;3.10;;;13.40;99.90;;;;;;5045240;28;20463;-71
2023/10/23 13:51:56;;;;;;;2.70;2.47;;;13.40;99.90;;;;;;5066454;28;20912;-71
2023/10/23 13:54:24;;;;;;;1.50;1.50;;;13.40;99.90;;;;;;5051694;28;20517;-72
2023/10/23 13:56:58;;;;;;;1.40;1.40;;;13.30;99.90;;;;;;5043597;28;20460;-72
2023/10/23 13:59:29;;;;;;;1.07;1.00;;;13.30;99.90;;;;;;5041628;28;20551;-72
2023/10/23 14:01:55;;;;;;;1.23;1.20;;;13.20;99.90;;;;;;5051061;28;20479;-72
2023/10/23 14:04:22;;;;;;;1.90;1.90;;;13.10;99.90;;;;;;5045097;28;20468;-72
2023/10/23 14:06:49;;;;;;;2.27;2.17;;;13.10;99.90;;;;;;5059002;28;20483;-71
2023/10/23 14:09:16;;;;;;;3.17;1.77;;;13.00;99.90;;;;;;5055692;28;21014;-70
2023/10/23 14:11:44;;;;;;;1.50;1.50;;;13.00;99.90;;;;;;5045939;28;20541;-71
2023/10/23 14:14:11;;;;;;;2.10;1.90;;;13.00;99.90;;;;;;5046713;28;20482;-71
2023/10/23 14:16:40;;;;;;;1.90;1.80;;;13.00;99.90;;;;;;5046561;28;20999;-70
2023/10/23 14:19:13;;;;;;;3.33;3.10;;;12.90;99.90;;;;;;5045981;28;20876;-71
2023/10/23 14:21:40;;;;;;;5.30;4.87;;;12.90;99.90;;;;;;5054846;28;20959;-70
2023/10/23 14:24:10;;;;;;;8.57;7.67;;;12.80;99.90;;;;;;5053277;28;20830;-71
2023/10/23 14:26:37;;;;;;;6.67;5.83;;;12.80;99.90;;;;;;5046193;28;20503;-70
2023/10/23 14:29:07;;;;;;;21.93;15.10;;;12.80;99.90;;;;;;5051214;28;20470;-70
2023/10/23 14:31:34;;;;;;;12.47;9.80;;;12.80;99.90;;;;;;5062306;28;20952;-71
2023/10/23 14:34:01;;;;;;;9.73;7.37;;;12.80;99.90;;;;;;5043172;28;20492;-70
2023/10/23 14:36:35;;;;;;;14.40;11.40;;;12.80;99.90;;;;;;5043881;28;20488;-70
2023/10/23 14:39:02;;;;;;;2.67;2.47;;;12.80;99.90;;;;;;5065025;28;20813;-71
2023/10/23 14:41:28;;;;;;;3.57;3.37;;;12.80;99.90;;;;;;5067292;28;20516;-71
2023/10/23 14:43:56;;;;;;;10.97;6.13;;;12.80;99.90;;;;;;5041336;28;20463;-71
2023/10/23 14:46:25;;;;;;;10.60;7.23;;;12.80;99.90;;;;;;5036811;28;20475;-71
2023/10/23 14:48:51;;;;;;;12.03;10.07;;;12.80;99.90;;;;;;5049401;28;20463;-71
2023/10/23 14:51:19;;;;;;;18.30;14.40;;;12.70;99.90;;;;;;5050253;28;20969;-70
2023/10/23 14:53:46;;;;;;;6.43;5.87;;;12.70;99.90;;;;;;5042218;28;20514;-71
2023/10/23 14:56:13;;;;;;;9.53;8.60;;;12.70;99.90;;;;;;5055846;28;20852;-70
2023/10/23 14:58:40;;;;;;;13.90;10.07;;;12.70;99.90;;;;;;5061345;28;20464;-71
2023/10/23 15:01:07;;;;;;;4.97;4.20;;;12.60;99.90;;;;;;5048263;28;20992;-76
2023/10/23 15:03:41;;;;;;;2.67;2.50;;;12.60;99.90;;;;;;5043660;28;20492;-71
2023/10/23 15:06:13;;;;;;;2.63;2.43;;;12.60;99.90;;;;;;5056442;28;20537;-70
2023/10/23 15:08:41;;;;;;;3.70;2.33;;;12.50;99.90;;;;;;5035593;28;20466;-70
2023/10/23 15:11:12;;;;;;;2.47;2.13;;;12.50;99.90;;;;;;5045454;28;20467;-70
2023/10/23 15:13:39;;;;;;;2.87;2.40;;;12.40;99.90;;;;;;5049132;28;20495;-70
2023/10/23 15:16:06;;;;;;;2.53;2.33;;;12.40;99.90;;;;;;5055709;28;20491;-70
2023/10/23 15:18:36;;;;;;;2.20;2.13;;;12.30;99.90;;;;;;5052685;28;20475;-71
2023/10/23 15:21:04;;;;;;;3.07;2.30;;;12.30;99.90;;;;;;5034648;28;20523;-70
2023/10/23 15:23:30;;;;;;;2.30;2.10;;;12.30;99.90;;;;;;5040694;28;20465;-71
2023/10/23 15:25:57;;;;;;;2.73;2.63;;;12.20;99.90;;;;;;5057381;28;20578;-69
2023/10/23 15:28:26;;;;;;;2.53;2.43;;;12.10;99.90;;;;;;5050183;28;20556;-70
2023/10/23 15:30:56;;;;;;;3.70;2.90;;;12.00;99.90;;;;;;5037048;28;20556;-70
2023/10/23 15:33:23;;;;;;;3.50;3.20;;;12.00;99.90;;;;;;5055284;28;20990;-69
2023/10/23 15:35:53;;;;;;;3.10;2.90;;;11.90;99.90;;;;;;5038621;28;20871;-70
2023/10/23 15:38:21;;;;;;;3.87;3.67;;;11.80;99.90;;;;;;5051641;28;20467;-69
2023/10/23 15:40:49;;;;;;;3.10;2.90;;;11.80;99.90;;;;;;5053857;28;20528;-70
2023/10/23 15:43:19;;;;;;;3.10;2.80;;;11.70;99.90;;;;;;5049040;28;20474;-69
2023/10/23 15:45:49;;;;;;;4.33;3.00;;;11.60;99.90;;;;;;5046466;28;20494;-69
2023/10/23 15:48:20;;;;;;;4.53;4.23;;;11.60;99.90;;;;;;5047339;28;20470;-69
2023/10/23 15:50:47;;;;;;;3.60;3.33;;;11.50;99.90;;;;;;5049829;28;20499;-69
2023/10/23 15:53:20;;;;;;;4.00;3.60;;;11.40;99.90;;;;;;5050509;28;21021;-70
2023/10/23 15:55:50;;;;;;;6.53;6.00;;;11.40;99.90;;;;;;5044159;28;20495;-68
2023/10/23 15:58:17;;;;;;;5.30;4.90;;;11.30;99.90;;;;;;5052796;28;20485;-69
2023/10/23 16:00:46;;;;;;;5.60;5.20;;;11.20;99.90;;;;;;5050863;28;20467;-69
2023/10/23 16:03:13;;;;;;;5.97;5.57;;;11.20;99.90;;;;;;5044223;28;20481;-70
2023/10/23 16:05:42;;;;;;;5.40;5.00;;;11.10;99.90;;;;;;5051954;28;20483;-70
2023/10/23 16:08:11;;;;;;;7.73;5.87;;;11.00;99.90;;;;;;5048812;28;20214;-70
2023/10/23 16:10:44;;;;;;;5.27;4.87;;;11.00;99.90;;;;;;5053020;28;20470;-69
2023/10/23 16:13:11;;;;;;;4.73;4.33;;;10.90;99.90;;;;;;5049651;28;20481;-69
2023/10/23 16:15:41;;;;;;;5.20;4.80;;;10.90;99.90;;;;;;5049508;28;20540;-69
2023/10/23 16:18:08;;;;;;;4.38;4.10;;;10.80;99.90;;;;;;5044665;28;20205;-70
2023/10/23 16:20:36;;;;;;;5.88;5.45;;;10.80;99.90;;;;;;5047717;28;20286;-69
2023/10/23 16:23:09;;;;;;;5.50;4.85;;;10.70;99.90;;;;;;5057148;28;20570;-69
2023/10/23 16:25:37;;;;;;;6.03;5.20;;;10.60;99.90;;;;;;5050733;28;20307;-69
2023/10/23 16:28:07;;;;;;;5.57;3.90;;;10.60;99.90;;;;;;5047884;28;20463;-69
2023/10/23 16:30:35;;;;;;;5.10;4.40;;;10.60;99.90;;;;;;5042385;28;20200;-70
2023/10/23 16:33:02;;;;;;;6.47;5.18;;;10.50;99.90;;;;;;5052279;28;20232;-70
2023/10/23 16:35:29;;;;;;;5.68;5.05;;;10.50;99.90;;;;;;5041199;28;20227;-70
2023/10/23 16:37:56;;;;;;;7.25;6.55;;;10.40;99.90;;;;;;5043415;28;20960;-70
2023/10/23 16:40:23;;;;;;;10.88;6.15;;;10.40;99.90;;;;;;5037035;28;20211;-70
2023/10/23 16:42:50;;;;;;;8.85;7.85;;;10.30;99.90;;;;;;5055423;28;20205;-71
2023/10/23 16:45:18;;;;;;;11.32;7.53;;;10.30;99.90;;;;;;5051258;28;20227;-69
2023/10/23 16:47:45;;;;;;;10.32;7.38;;;10.30;99.90;;;;;;5066941;28;20381;-69
2023/10/23 16:50:12;;;;;;;7.78;7.00;;;10.20;99.90;;;;;;5058551;28;20207;-69
2023/10/23 16:52:39;;;;;;;9.70;7.82;;;10.20;99.90;;;;;;5056381;28;20664;-69
2023/10/23 16:55:07;;;;;;;6.15;5.53;;;10.20;99.90;;;;;;5050910;28;21000;-70
2023/10/23 16:57:34;;;;;;;10.23;5.70;;;10.20;99.90;;;;;;5055976;28;20565;-69
2023/10/23 17:00:05;;;;;;;6.10;5.50;;;10.20;99.90;;;;;;5058177;28;20739;-70